FIN6EN EFHK-EGCC
Flight info
| Callsign | FIN6EN |
|---|---|
| Flight time | 2h 55m |
| Altitude | 34000 |
| Route | KUVEM Y366 USITU DCT LUPET DCT AMSEV/N0453F360 DCT VAXIT DCT REKNA DCT TILNI |
| Aircraft | A321/M-SDE3FGHIRWY/LB1 |
Departure
| Time | 2026-05-05 20:24 |
|---|---|
| Airport | Helsinki Vantaa Airport (EFHK) |
Arrival
| Time | 2026-05-05 23:19 |
|---|---|
| Airport | Manchester Airport (EGCC) |
| Time | Latitude | Longitude | Altitude | Speed | Heading |
|---|---|---|---|---|---|
| 2026-05-05 19:48 | 60.31505 | 24.95726 | 167 ft | 0 kts | 137° |
| 2026-05-05 19:49 | 60.31505 | 24.95725 | 167 ft | 0 kts | 137° |
| 2026-05-05 20:12 | 60.31511 | 24.95715 | 166 ft | 2 kts | 135° |
| 2026-05-05 20:13 | 60.31522 | 24.95691 | 166 ft | 2 kts | 135° |
| 2026-05-05 20:13 | 60.31534 | 24.95667 | 166 ft | 2 kts | 130° |
| 2026-05-05 20:13 | 60.31544 | 24.95640 | 166 ft | 2 kts | 122° |
| 2026-05-05 20:13 | 60.31552 | 24.95611 | 166 ft | 2 kts | 102° |
| 2026-05-05 20:14 | 60.31552 | 24.95578 | 166 ft | 2 kts | 61° |
| 2026-05-05 20:14 | 60.31546 | 24.95558 | 166 ft | 1 kts | 47° |
| 2026-05-05 20:14 | 60.31545 | 24.95557 | 167 ft | 0 kts | 47° |
| 2026-05-05 20:17 | 60.31546 | 24.95559 | 167 ft | 1 kts | 47° |
| 2026-05-05 20:18 | 60.31553 | 24.95574 | 167 ft | 2 kts | 48° |
| 2026-05-05 20:18 | 60.31566 | 24.95603 | 167 ft | 4 kts | 48° |
| 2026-05-05 20:18 | 60.31600 | 24.95666 | 167 ft | 8 kts | 26° |
| 2026-05-05 20:18 | 60.31655 | 24.95628 | 167 ft | 11 kts | 321° |
| 2026-05-05 20:19 | 60.31725 | 24.95540 | 170 ft | 10 kts | 358° |
| 2026-05-05 20:19 | 60.31783 | 24.95636 | 170 ft | 14 kts | 46° |
| 2026-05-05 20:19 | 60.31849 | 24.95783 | 169 ft | 15 kts | 47° |
| 2026-05-05 20:19 | 60.31922 | 24.95934 | 170 ft | 15 kts | 37° |
| 2026-05-05 20:20 | 60.32003 | 24.95888 | 173 ft | 12 kts | 317° |
| 2026-05-05 20:20 | 60.32066 | 24.95772 | 174 ft | 13 kts | 318° |
| 2026-05-05 20:20 | 60.32140 | 24.95638 | 173 ft | 16 kts | 318° |
| 2026-05-05 20:20 | 60.32221 | 24.95490 | 174 ft | 16 kts | 317° |
| 2026-05-05 20:21 | 60.32301 | 24.95338 | 176 ft | 17 kts | 317° |
| 2026-05-05 20:21 | 60.32408 | 24.95229 | 178 ft | 17 kts | 342° |
| 2026-05-05 20:21 | 60.32483 | 24.95180 | 179 ft | 17 kts | 342° |
| 2026-05-05 20:21 | 60.32638 | 24.95078 | 180 ft | 18 kts | 342° |
| 2026-05-05 20:22 | 60.32719 | 24.95026 | 179 ft | 18 kts | 342° |
| 2026-05-05 20:22 | 60.32874 | 24.94922 | 174 ft | 17 kts | 338° |
| 2026-05-05 20:22 | 60.32962 | 24.94785 | 178 ft | 15 kts | 317° |
| 2026-05-05 20:22 | 60.33033 | 24.94645 | 182 ft | 13 kts | 305° |
| 2026-05-05 20:23 | 60.33048 | 24.94478 | 186 ft | 13 kts | 272° |
| 2026-05-05 20:23 | 60.33050 | 24.94358 | 189 ft | 12 kts | 272° |
| 2026-05-05 20:23 | 60.33018 | 24.94180 | 196 ft | 10 kts | 229° |
| 2026-05-05 20:23 | 60.33007 | 24.94156 | 181 ft | 2 kts | 228° |
| 2026-05-05 20:24 | 60.32917 | 24.93954 | 193 ft | 52 kts | 227° |
| 2026-05-05 20:24 | 60.32513 | 24.93063 | 177 ft | 119 kts | 227° |
| 2026-05-05 20:24 | 60.31817 | 24.91525 | 163 ft | 173 kts | 228° |
| 2026-05-05 20:24 | 60.31024 | 24.89764 | 929 ft | 165 kts | 231° |
| 2026-05-05 20:25 | 60.30346 | 24.87901 | 1632 ft | 165 kts | 248° |
| 2026-05-05 20:25 | 60.29947 | 24.85692 | 1976 ft | 179 kts | 262° |
| 2026-05-05 20:25 | 60.29876 | 24.83027 | 2206 ft | 198 kts | 278° |
| 2026-05-05 20:25 | 60.30200 | 24.80184 | 2384 ft | 221 kts | 286° |
| 2026-05-05 20:26 | 60.30227 | 24.76976 | 2815 ft | 242 kts | 255° |
| 2026-05-05 20:26 | 60.29612 | 24.73756 | 3544 ft | 249 kts | 250° |
| 2026-05-05 20:26 | 60.28948 | 24.70519 | 4355 ft | 251 kts | 250° |
| 2026-05-05 20:26 | 60.28270 | 24.67260 | 5182 ft | 253 kts | 250° |
| 2026-05-05 20:27 | 60.27600 | 24.64026 | 5973 ft | 255 kts | 250° |
| 2026-05-05 20:27 | 60.26912 | 24.60709 | 6748 ft | 258 kts | 249° |
| 2026-05-05 20:27 | 60.26220 | 24.57355 | 7523 ft | 260 kts | 250° |
| 2026-05-05 20:27 | 60.25525 | 24.53974 | 8287 ft | 263 kts | 250° |
| 2026-05-05 20:28 | 60.24823 | 24.50552 | 9061 ft | 266 kts | 249° |
| 2026-05-05 20:28 | 60.24243 | 24.47014 | 9813 ft | 267 kts | 260° |
| 2026-05-05 20:28 | 60.23886 | 24.43274 | 10243 ft | 282 kts | 260° |
| 2026-05-05 20:28 | 60.23547 | 24.39681 | 10392 ft | 302 kts | 260° |
| 2026-05-05 20:29 | 60.23143 | 24.35403 | 10709 ft | 316 kts | 259° |
| 2026-05-05 20:29 | 60.22731 | 24.31098 | 11382 ft | 319 kts | 259° |
| 2026-05-05 20:29 | 60.22306 | 24.26721 | 12188 ft | 318 kts | 258° |
| 2026-05-05 20:29 | 60.21888 | 24.22438 | 13005 ft | 316 kts | 258° |
| 2026-05-05 20:30 | 60.21462 | 24.18094 | 13815 ft | 315 kts | 257° |
| 2026-05-05 20:30 | 60.21038 | 24.13777 | 14531 ft | 314 kts | 257° |
| 2026-05-05 20:30 | 60.20614 | 24.09428 | 15266 ft | 313 kts | 257° |
| 2026-05-05 20:30 | 60.20197 | 24.05204 | 15973 ft | 312 kts | 257° |
| 2026-05-05 20:31 | 60.19772 | 24.00917 | 16703 ft | 311 kts | 257° |
| 2026-05-05 20:31 | 60.19347 | 23.96666 | 17414 ft | 310 kts | 257° |
| 2026-05-05 20:31 | 60.18916 | 23.92412 | 18128 ft | 310 kts | 256° |
| 2026-05-05 20:31 | 60.18444 | 23.88189 | 18713 ft | 310 kts | 256° |
| 2026-05-05 20:32 | 60.17940 | 23.83961 | 19235 ft | 312 kts | 255° |
| 2026-05-05 20:32 | 60.17419 | 23.79715 | 19740 ft | 315 kts | 255° |
| 2026-05-05 20:32 | 60.16894 | 23.75430 | 20249 ft | 317 kts | 255° |
| 2026-05-05 20:32 | 60.16367 | 23.71107 | 20756 ft | 320 kts | 255° |
| 2026-05-05 20:33 | 60.15838 | 23.66736 | 21233 ft | 323 kts | 255° |
| 2026-05-05 20:33 | 60.15305 | 23.62336 | 21707 ft | 326 kts | 255° |
| 2026-05-05 20:33 | 60.14766 | 23.57895 | 22180 ft | 328 kts | 255° |
| 2026-05-05 20:33 | 60.14223 | 23.53424 | 22633 ft | 331 kts | 255° |
| 2026-05-05 20:34 | 60.13676 | 23.48920 | 23063 ft | 334 kts | 255° |
| 2026-05-05 20:34 | 60.13121 | 23.44376 | 23490 ft | 337 kts | 255° |
| 2026-05-05 20:34 | 60.12559 | 23.39796 | 23858 ft | 339 kts | 255° |
| 2026-05-05 20:34 | 60.11992 | 23.35195 | 24233 ft | 341 kts | 255° |
| 2026-05-05 20:35 | 60.11441 | 23.30727 | 24589 ft | 343 kts | 255° |
| 2026-05-05 20:35 | 60.10854 | 23.25984 | 24969 ft | 345 kts | 255° |
| 2026-05-05 20:35 | 60.10274 | 23.21308 | 25330 ft | 347 kts | 255° |
| 2026-05-05 20:35 | 60.09690 | 23.16603 | 25689 ft | 349 kts | 255° |
| 2026-05-05 20:36 | 60.09103 | 23.11886 | 26045 ft | 351 kts | 255° |
| 2026-05-05 20:36 | 60.08507 | 23.07124 | 26396 ft | 353 kts | 255° |
| 2026-05-05 20:36 | 60.07906 | 23.02350 | 26744 ft | 355 kts | 255° |
| 2026-05-05 20:36 | 60.07303 | 22.97573 | 27088 ft | 357 kts | 255° |
| 2026-05-05 20:37 | 60.06689 | 22.92719 | 27424 ft | 359 kts | 255° |
| 2026-05-05 20:37 | 60.06073 | 22.87866 | 27737 ft | 361 kts | 255° |
| 2026-05-05 20:37 | 60.05451 | 22.82982 | 28073 ft | 363 kts | 255° |
| 2026-05-05 20:37 | 60.04825 | 22.78081 | 28385 ft | 365 kts | 255° |
| 2026-05-05 20:38 | 60.04193 | 22.73152 | 28696 ft | 367 kts | 255° |
| 2026-05-05 20:38 | 60.03555 | 22.68199 | 29012 ft | 369 kts | 255° |
| 2026-05-05 20:38 | 60.02914 | 22.63227 | 29327 ft | 371 kts | 255° |
| 2026-05-05 20:38 | 60.02267 | 22.58220 | 29642 ft | 373 kts | 255° |
| 2026-05-05 20:39 | 60.01616 | 22.53200 | 29949 ft | 374 kts | 255° |
| 2026-05-05 20:39 | 60.00962 | 22.48161 | 30304 ft | 374 kts | 255° |
| 2026-05-05 20:39 | 60.00309 | 22.43141 | 30659 ft | 373 kts | 255° |
| 2026-05-05 20:39 | 59.99654 | 22.38122 | 30994 ft | 373 kts | 255° |
| 2026-05-05 20:40 | 59.98998 | 22.33122 | 31322 ft | 373 kts | 255° |
| 2026-05-05 20:40 | 59.98339 | 22.28120 | 31643 ft | 372 kts | 255° |
| 2026-05-05 20:40 | 59.97675 | 22.23121 | 31963 ft | 372 kts | 254° |
| 2026-05-05 20:40 | 59.97009 | 22.18122 | 32284 ft | 372 kts | 254° |
| 2026-05-05 20:41 | 59.96341 | 22.13145 | 32597 ft | 372 kts | 254° |
| 2026-05-05 20:41 | 59.95667 | 22.08157 | 32904 ft | 372 kts | 254° |
| 2026-05-05 20:41 | 59.94995 | 22.03178 | 33205 ft | 372 kts | 254° |
| 2026-05-05 20:41 | 59.94325 | 21.98203 | 33499 ft | 372 kts | 254° |
| 2026-05-05 20:42 | 59.93655 | 21.93221 | 33784 ft | 372 kts | 254° |
| 2026-05-05 20:42 | 59.92313 | 21.83284 | 33891 ft | 369 kts | 254° |
| 2026-05-05 20:43 | 59.90965 | 21.73428 | 33894 ft | 368 kts | 254° |
| 2026-05-05 20:43 | 59.89628 | 21.63717 | 33892 ft | 368 kts | 254° |
| 2026-05-05 20:44 | 59.88271 | 21.53859 | 33891 ft | 369 kts | 254° |
| 2026-05-05 20:44 | 59.86901 | 21.44017 | 33894 ft | 369 kts | 254° |
| 2026-05-05 20:45 | 59.84830 | 21.29244 | 33893 ft | 370 kts | 254° |
| 2026-05-05 20:45 | 59.83443 | 21.19388 | 33892 ft | 370 kts | 253° |
| 2026-05-05 20:46 | 59.82045 | 21.09519 | 33899 ft | 371 kts | 253° |
| 2026-05-05 20:46 | 59.80635 | 20.99657 | 33902 ft | 371 kts | 253° |
| 2026-05-05 20:47 | 59.79214 | 20.89798 | 33901 ft | 371 kts | 253° |
| 2026-05-05 20:47 | 59.77789 | 20.79960 | 33898 ft | 371 kts | 253° |
| 2026-05-05 20:48 | 59.76361 | 20.70102 | 33896 ft | 371 kts | 253° |
| 2026-05-05 20:48 | 59.74928 | 20.60257 | 33901 ft | 372 kts | 253° |
| 2026-05-05 20:49 | 59.73477 | 20.50417 | 33898 ft | 372 kts | 253° |
| 2026-05-05 20:49 | 59.72022 | 20.40570 | 33899 ft | 372 kts | 253° |
| 2026-05-05 20:50 | 59.70554 | 20.30738 | 33900 ft | 372 kts | 253° |
| 2026-05-05 20:50 | 59.69073 | 20.20911 | 33903 ft | 372 kts | 253° |
| 2026-05-05 20:51 | 59.67595 | 20.11080 | 33902 ft | 373 kts | 253° |
| 2026-05-05 20:51 | 59.66104 | 20.01252 | 33915 ft | 373 kts | 253° |
| 2026-05-05 20:52 | 59.64606 | 19.91429 | 33919 ft | 374 kts | 253° |
| 2026-05-05 20:52 | 59.63189 | 19.81542 | 33908 ft | 374 kts | 255° |
| 2026-05-05 20:53 | 59.61943 | 19.71582 | 33920 ft | 373 kts | 256° |
| 2026-05-05 20:53 | 59.60710 | 19.61620 | 33914 ft | 374 kts | 256° |
| 2026-05-05 20:54 | 59.59438 | 19.51670 | 33926 ft | 373 kts | 255° |
| 2026-05-05 20:54 | 59.58137 | 19.41748 | 33917 ft | 373 kts | 255° |
| 2026-05-05 20:55 | 59.56834 | 19.31839 | 33926 ft | 374 kts | 255° |
| 2026-05-05 20:55 | 59.55529 | 19.21916 | 33916 ft | 374 kts | 255° |
| 2026-05-05 20:56 | 59.54219 | 19.11986 | 33911 ft | 374 kts | 255° |
| 2026-05-05 20:56 | 59.52895 | 19.02073 | 33916 ft | 374 kts | 255° |
| 2026-05-05 20:57 | 59.51557 | 18.92171 | 33918 ft | 374 kts | 255° |
| 2026-05-05 20:57 | 59.50219 | 18.82259 | 33921 ft | 374 kts | 255° |
| 2026-05-05 20:58 | 59.48877 | 18.72361 | 33918 ft | 375 kts | 255° |
| 2026-05-05 20:58 | 59.47522 | 18.62453 | 33911 ft | 375 kts | 255° |
| 2026-05-05 20:59 | 59.46185 | 18.52788 | 33920 ft | 375 kts | 255° |
| 2026-05-05 20:59 | 59.44888 | 18.43416 | 33923 ft | 375 kts | 255° |
| 2026-05-05 21:00 | 59.43523 | 18.33592 | 33924 ft | 375 kts | 255° |
| 2026-05-05 21:00 | 59.42138 | 18.23707 | 33929 ft | 375 kts | 255° |
| 2026-05-05 21:01 | 59.40742 | 18.13838 | 33933 ft | 375 kts | 255° |
| 2026-05-05 21:01 | 59.39343 | 18.03985 | 33935 ft | 375 kts | 255° |
| 2026-05-05 21:02 | 59.37934 | 17.94141 | 33934 ft | 375 kts | 255° |
| 2026-05-05 21:02 | 59.36515 | 17.84275 | 33931 ft | 375 kts | 255° |
| 2026-05-05 21:03 | 59.35102 | 17.74449 | 33934 ft | 375 kts | 255° |
| 2026-05-05 21:03 | 59.33667 | 17.64600 | 33941 ft | 375 kts | 255° |
| 2026-05-05 21:04 | 59.32230 | 17.54778 | 33938 ft | 375 kts | 255° |
| 2026-05-05 21:04 | 59.30775 | 17.44962 | 33935 ft | 375 kts | 254° |
| 2026-05-05 21:05 | 59.29322 | 17.35159 | 33935 ft | 375 kts | 254° |
| 2026-05-05 21:05 | 59.27867 | 17.25355 | 33934 ft | 375 kts | 254° |
| 2026-05-05 21:06 | 59.26409 | 17.15588 | 33936 ft | 375 kts | 254° |
| 2026-05-05 21:06 | 59.25185 | 17.07458 | 33937 ft | 375 kts | 254° |
| 2026-05-05 21:07 | 59.23705 | 16.97731 | 33937 ft | 375 kts | 254° |
| 2026-05-05 21:07 | 59.22217 | 16.88003 | 33938 ft | 374 kts | 254° |
| 2026-05-05 21:08 | 59.20723 | 16.78251 | 33943 ft | 374 kts | 254° |
| 2026-05-05 21:08 | 59.19226 | 16.68540 | 33945 ft | 374 kts | 254° |
| 2026-05-05 21:09 | 59.17718 | 16.58828 | 33945 ft | 374 kts | 254° |
| 2026-05-05 21:09 | 59.16214 | 16.49139 | 33943 ft | 374 kts | 254° |
| 2026-05-05 21:10 | 59.14699 | 16.39448 | 33944 ft | 374 kts | 254° |
| 2026-05-05 21:10 | 59.13174 | 16.29784 | 33942 ft | 373 kts | 254° |
| 2026-05-05 21:11 | 59.11635 | 16.20129 | 33947 ft | 373 kts | 254° |
| 2026-05-05 21:11 | 59.10094 | 16.10477 | 33946 ft | 373 kts | 254° |
| 2026-05-05 21:12 | 59.08552 | 16.00856 | 33950 ft | 373 kts | 253° |
| 2026-05-05 21:12 | 59.07006 | 15.91239 | 33949 ft | 373 kts | 253° |
| 2026-05-05 21:13 | 59.05452 | 15.81631 | 33946 ft | 372 kts | 253° |
| 2026-05-05 21:13 | 59.03891 | 15.72060 | 33953 ft | 372 kts | 253° |
| 2026-05-05 21:14 | 59.02321 | 15.62478 | 33949 ft | 372 kts | 253° |
| 2026-05-05 21:14 | 59.00748 | 15.52927 | 33950 ft | 372 kts | 253° |
| 2026-05-05 21:15 | 58.99170 | 15.43383 | 33951 ft | 371 kts | 253° |
| 2026-05-05 21:15 | 58.97580 | 15.33859 | 33951 ft | 371 kts | 253° |
| 2026-05-05 21:16 | 58.95982 | 15.24335 | 33953 ft | 371 kts | 253° |
| 2026-05-05 21:16 | 58.94380 | 15.14817 | 33956 ft | 371 kts | 253° |
| 2026-05-05 21:17 | 58.92777 | 15.05320 | 33955 ft | 372 kts | 253° |
| 2026-05-05 21:17 | 58.91167 | 14.95813 | 33955 ft | 371 kts | 253° |
| 2026-05-05 21:18 | 58.89557 | 14.86392 | 33957 ft | 371 kts | 253° |
| 2026-05-05 21:18 | 58.87928 | 14.76931 | 33957 ft | 371 kts | 253° |
| 2026-05-05 21:19 | 58.86288 | 14.67466 | 33956 ft | 371 kts | 253° |
| 2026-05-05 21:19 | 58.84643 | 14.58017 | 33958 ft | 372 kts | 252° |
| 2026-05-05 21:20 | 58.82990 | 14.48555 | 33961 ft | 372 kts | 252° |
| 2026-05-05 21:20 | 58.81334 | 14.39109 | 33963 ft | 372 kts | 252° |
| 2026-05-05 21:21 | 58.79668 | 14.29652 | 33966 ft | 372 kts | 252° |
| 2026-05-05 21:21 | 58.77995 | 14.20208 | 33967 ft | 372 kts | 252° |
| 2026-05-05 21:22 | 58.76315 | 14.10784 | 33969 ft | 372 kts | 252° |
| 2026-05-05 21:22 | 58.74629 | 14.01369 | 33966 ft | 372 kts | 252° |
| 2026-05-05 21:23 | 58.72931 | 13.91953 | 33970 ft | 372 kts | 252° |
| 2026-05-05 21:23 | 58.71235 | 13.82555 | 33969 ft | 372 kts | 252° |
| 2026-05-05 21:24 | 58.69527 | 13.73141 | 34100 ft | 375 kts | 252° |
| 2026-05-05 21:24 | 58.68661 | 13.68395 | 34326 ft | 377 kts | 252° |
| 2026-05-05 21:24 | 58.67791 | 13.63640 | 34542 ft | 378 kts | 252° |
| 2026-05-05 21:25 | 58.66914 | 13.58868 | 34740 ft | 379 kts | 252° |
| 2026-05-05 21:25 | 58.66031 | 13.54082 | 34949 ft | 381 kts | 252° |
| 2026-05-05 21:25 | 58.65146 | 13.49292 | 35146 ft | 382 kts | 252° |
| 2026-05-05 21:25 | 58.64257 | 13.44467 | 35347 ft | 383 kts | 252° |
| 2026-05-05 21:26 | 58.63370 | 13.39659 | 35554 ft | 384 kts | 252° |
| 2026-05-05 21:26 | 58.62473 | 13.34806 | 35743 ft | 386 kts | 252° |
| 2026-05-05 21:26 | 58.61571 | 13.29954 | 35918 ft | 387 kts | 251° |
| 2026-05-05 21:26 | 58.60661 | 13.25080 | 35967 ft | 389 kts | 251° |
| 2026-05-05 21:27 | 58.58832 | 13.15321 | 35964 ft | 389 kts | 251° |
| 2026-05-05 21:27 | 58.56989 | 13.05572 | 35959 ft | 389 kts | 251° |
| 2026-05-05 21:28 | 58.55140 | 12.95830 | 35957 ft | 389 kts | 251° |
| 2026-05-05 21:28 | 58.53294 | 12.86089 | 35976 ft | 389 kts | 251° |
| 2026-05-05 21:29 | 58.51438 | 12.76352 | 35983 ft | 390 kts | 251° |
| 2026-05-05 21:29 | 58.49572 | 12.66624 | 35985 ft | 390 kts | 251° |
| 2026-05-05 21:30 | 58.47703 | 12.56967 | 35983 ft | 390 kts | 251° |
| 2026-05-05 21:30 | 58.45819 | 12.47275 | 35989 ft | 390 kts | 251° |
| 2026-05-05 21:31 | 58.43916 | 12.37540 | 35991 ft | 390 kts | 251° |
| 2026-05-05 21:31 | 58.42025 | 12.27871 | 35991 ft | 390 kts | 251° |
| 2026-05-05 21:32 | 58.40137 | 12.18276 | 35989 ft | 390 kts | 250° |
| 2026-05-05 21:32 | 58.38202 | 12.08507 | 35989 ft | 390 kts | 250° |
| 2026-05-05 21:33 | 58.36279 | 11.98836 | 35986 ft | 390 kts | 250° |
| 2026-05-05 21:33 | 58.34357 | 11.89239 | 35983 ft | 390 kts | 250° |
| 2026-05-05 21:34 | 58.32550 | 11.80238 | 35983 ft | 390 kts | 250° |
| 2026-05-05 21:34 | 58.30610 | 11.70600 | 35983 ft | 390 kts | 250° |
| 2026-05-05 21:35 | 58.28662 | 11.61002 | 35980 ft | 390 kts | 250° |
| 2026-05-05 21:35 | 58.26743 | 11.51572 | 35977 ft | 390 kts | 250° |
| 2026-05-05 21:36 | 58.24776 | 11.41972 | 35973 ft | 390 kts | 250° |
| 2026-05-05 21:36 | 58.22803 | 11.32384 | 35974 ft | 390 kts | 250° |
| 2026-05-05 21:37 | 58.20828 | 11.22819 | 35972 ft | 391 kts | 250° |
| 2026-05-05 21:37 | 58.18836 | 11.13238 | 35970 ft | 391 kts | 249° |
| 2026-05-05 21:38 | 58.16841 | 11.03651 | 35971 ft | 391 kts | 249° |
| 2026-05-05 21:38 | 58.14847 | 10.94137 | 35972 ft | 391 kts | 249° |
| 2026-05-05 21:39 | 58.12859 | 10.84690 | 35971 ft | 392 kts | 249° |
| 2026-05-05 21:39 | 58.10840 | 10.75138 | 35977 ft | 392 kts | 249° |
| 2026-05-05 21:40 | 58.08806 | 10.65571 | 35975 ft | 392 kts | 249° |
| 2026-05-05 21:40 | 58.06769 | 10.56018 | 35980 ft | 393 kts | 249° |
| 2026-05-05 21:41 | 58.04713 | 10.46435 | 35979 ft | 393 kts | 249° |
| 2026-05-05 21:41 | 58.02653 | 10.36891 | 35980 ft | 393 kts | 249° |
| 2026-05-05 21:42 | 58.00592 | 10.27337 | 35980 ft | 393 kts | 249° |
| 2026-05-05 21:42 | 57.98518 | 10.17794 | 35986 ft | 394 kts | 249° |
| 2026-05-05 21:43 | 57.96425 | 10.08258 | 35979 ft | 394 kts | 248° |
| 2026-05-05 21:43 | 57.94334 | 9.98734 | 35983 ft | 394 kts | 248° |
| 2026-05-05 21:44 | 57.92233 | 9.89204 | 35982 ft | 394 kts | 248° |
| 2026-05-05 21:44 | 57.90125 | 9.79675 | 35983 ft | 394 kts | 248° |
| 2026-05-05 21:45 | 57.88016 | 9.70176 | 35981 ft | 394 kts | 248° |
| 2026-05-05 21:45 | 57.85889 | 9.60674 | 35986 ft | 394 kts | 248° |
| 2026-05-05 21:46 | 57.83756 | 9.51184 | 35984 ft | 395 kts | 248° |
| 2026-05-05 21:46 | 57.81620 | 9.41702 | 35987 ft | 395 kts | 248° |
| 2026-05-05 21:47 | 57.79474 | 9.32225 | 35987 ft | 395 kts | 248° |
| 2026-05-05 21:47 | 57.77311 | 9.22766 | 35981 ft | 395 kts | 248° |
| 2026-05-05 21:48 | 57.75147 | 9.13309 | 35982 ft | 395 kts | 248° |
| 2026-05-05 21:48 | 57.72986 | 9.03860 | 35983 ft | 395 kts | 248° |
| 2026-05-05 21:49 | 57.70816 | 8.94420 | 35982 ft | 395 kts | 248° |
| 2026-05-05 21:49 | 57.68627 | 8.84997 | 35986 ft | 395 kts | 247° |
| 2026-05-05 21:50 | 57.66348 | 8.75653 | 35985 ft | 396 kts | 245° |
| 2026-05-05 21:50 | 57.63820 | 8.66522 | 35984 ft | 396 kts | 243° |
| 2026-05-05 21:51 | 57.61666 | 8.58988 | 35986 ft | 396 kts | 243° |
| 2026-05-05 21:51 | 57.59100 | 8.49905 | 35985 ft | 396 kts | 244° |
| 2026-05-05 21:52 | 57.55290 | 8.36272 | 35986 ft | 396 kts | 244° |
| 2026-05-05 21:53 | 57.52740 | 8.27180 | 35988 ft | 396 kts | 244° |
| 2026-05-05 21:53 | 57.50178 | 8.18085 | 35993 ft | 396 kts | 244° |
| 2026-05-05 21:54 | 57.47609 | 8.09029 | 35992 ft | 397 kts | 243° |
| 2026-05-05 21:54 | 57.45028 | 7.99971 | 35998 ft | 397 kts | 243° |
| 2026-05-05 21:55 | 57.42440 | 7.90915 | 35998 ft | 397 kts | 243° |
| 2026-05-05 21:55 | 57.39850 | 7.81869 | 36005 ft | 397 kts | 243° |
| 2026-05-05 21:56 | 57.37250 | 7.72842 | 36007 ft | 397 kts | 243° |
| 2026-05-05 21:56 | 57.34636 | 7.63814 | 36010 ft | 397 kts | 243° |
| 2026-05-05 21:57 | 57.32024 | 7.54806 | 36011 ft | 398 kts | 243° |
| 2026-05-05 21:57 | 57.29401 | 7.45798 | 36015 ft | 398 kts | 243° |
| 2026-05-05 21:58 | 57.26769 | 7.36793 | 36016 ft | 398 kts | 243° |
| 2026-05-05 21:58 | 57.24128 | 7.27806 | 36021 ft | 398 kts | 243° |
| 2026-05-05 21:59 | 57.21491 | 7.18860 | 36021 ft | 398 kts | 243° |
| 2026-05-05 21:59 | 57.18829 | 7.09889 | 36023 ft | 399 kts | 243° |
| 2026-05-05 22:00 | 57.16163 | 7.00923 | 36034 ft | 399 kts | 243° |
| 2026-05-05 22:00 | 57.13504 | 6.91981 | 36028 ft | 399 kts | 242° |
| 2026-05-05 22:01 | 57.10825 | 6.83012 | 36028 ft | 399 kts | 242° |
| 2026-05-05 22:01 | 57.08141 | 6.74069 | 36036 ft | 399 kts | 242° |
| 2026-05-05 22:02 | 57.05451 | 6.65159 | 36038 ft | 400 kts | 242° |
| 2026-05-05 22:02 | 57.02742 | 6.56228 | 36037 ft | 400 kts | 242° |
| 2026-05-05 22:03 | 57.00030 | 6.47319 | 36052 ft | 400 kts | 242° |
| 2026-05-05 22:03 | 56.97316 | 6.38405 | 36052 ft | 400 kts | 242° |
| 2026-05-05 22:04 | 56.94590 | 6.29501 | 36057 ft | 400 kts | 242° |
| 2026-05-05 22:04 | 56.91860 | 6.20607 | 36054 ft | 401 kts | 242° |
| 2026-05-05 22:05 | 56.89118 | 6.11736 | 36052 ft | 401 kts | 242° |
| 2026-05-05 22:05 | 56.86371 | 6.02864 | 36057 ft | 401 kts | 242° |
| 2026-05-05 22:06 | 56.83614 | 5.93994 | 36052 ft | 401 kts | 242° |
| 2026-05-05 22:06 | 56.80853 | 5.85137 | 36051 ft | 401 kts | 242° |
| 2026-05-05 22:07 | 56.78089 | 5.76294 | 36053 ft | 401 kts | 241° |
| 2026-05-05 22:07 | 56.75314 | 5.67456 | 36055 ft | 402 kts | 241° |
| 2026-05-05 22:08 | 56.72529 | 5.58649 | 36055 ft | 402 kts | 241° |
| 2026-05-05 22:08 | 56.69822 | 5.50111 | 36053 ft | 402 kts | 241° |
| 2026-05-05 22:09 | 56.67020 | 5.41312 | 36056 ft | 402 kts | 241° |
| 2026-05-05 22:09 | 56.64232 | 5.32571 | 36056 ft | 402 kts | 241° |
| 2026-05-05 22:10 | 56.61422 | 5.23777 | 36055 ft | 403 kts | 241° |
| 2026-05-05 22:10 | 56.58602 | 5.15004 | 36054 ft | 403 kts | 241° |
| 2026-05-05 22:11 | 56.55773 | 5.06232 | 36051 ft | 403 kts | 240° |
| 2026-05-05 22:11 | 56.53121 | 4.97312 | 36050 ft | 402 kts | 248° |
| 2026-05-05 22:12 | 56.50938 | 4.87996 | 36046 ft | 402 kts | 247° |
| 2026-05-05 22:12 | 56.48744 | 4.78682 | 36047 ft | 402 kts | 247° |
| 2026-05-05 22:13 | 56.46538 | 4.69382 | 36044 ft | 403 kts | 247° |
| 2026-05-05 22:13 | 56.44333 | 4.60072 | 36051 ft | 403 kts | 247° |
| 2026-05-05 22:14 | 56.42116 | 4.50769 | 36042 ft | 403 kts | 247° |
| 2026-05-05 22:14 | 56.39888 | 4.41466 | 36051 ft | 404 kts | 247° |
| 2026-05-05 22:15 | 56.37654 | 4.32160 | 36050 ft | 404 kts | 247° |
| 2026-05-05 22:15 | 56.35414 | 4.22850 | 36054 ft | 405 kts | 247° |
| 2026-05-05 22:16 | 56.33159 | 4.13541 | 36056 ft | 405 kts | 247° |
| 2026-05-05 22:16 | 56.30886 | 4.04238 | 36059 ft | 406 kts | 246° |
| 2026-05-05 22:17 | 56.28617 | 3.94947 | 36059 ft | 406 kts | 246° |
| 2026-05-05 22:17 | 56.26329 | 3.85635 | 36059 ft | 406 kts | 246° |
| 2026-05-05 22:18 | 56.24032 | 3.76350 | 36054 ft | 406 kts | 246° |
| 2026-05-05 22:18 | 56.21728 | 3.67063 | 36050 ft | 407 kts | 246° |
| 2026-05-05 22:19 | 56.19416 | 3.57777 | 36047 ft | 408 kts | 246° |
| 2026-05-05 22:19 | 56.17084 | 3.48495 | 36047 ft | 408 kts | 246° |
| 2026-05-05 22:20 | 56.14632 | 3.39300 | 36046 ft | 409 kts | 244° |
| 2026-05-05 22:20 | 56.12122 | 3.30219 | 36058 ft | 409 kts | 244° |
| 2026-05-05 22:21 | 56.09585 | 3.21022 | 36054 ft | 409 kts | 244° |
| 2026-05-05 22:21 | 56.07068 | 3.11879 | 36064 ft | 410 kts | 244° |
| 2026-05-05 22:22 | 56.04573 | 3.02781 | 36062 ft | 410 kts | 244° |
| 2026-05-05 22:22 | 56.02049 | 2.93637 | 36069 ft | 410 kts | 244° |
| 2026-05-05 22:23 | 55.99518 | 2.84544 | 36069 ft | 411 kts | 244° |
| 2026-05-05 22:23 | 55.96975 | 2.75405 | 36074 ft | 411 kts | 244° |
| 2026-05-05 22:24 | 55.94421 | 2.66278 | 36067 ft | 411 kts | 244° |
| 2026-05-05 22:24 | 55.91858 | 2.57166 | 36068 ft | 412 kts | 244° |
| 2026-05-05 22:25 | 55.89285 | 2.48036 | 36069 ft | 412 kts | 244° |
| 2026-05-05 22:25 | 55.86700 | 2.38918 | 36072 ft | 413 kts | 244° |
| 2026-05-05 22:26 | 55.84114 | 2.29793 | 36071 ft | 413 kts | 244° |
| 2026-05-05 22:26 | 55.81508 | 2.20676 | 36073 ft | 414 kts | 244° |
| 2026-05-05 22:27 | 55.78893 | 2.11567 | 36072 ft | 414 kts | 244° |
| 2026-05-05 22:27 | 55.76276 | 2.02454 | 36088 ft | 414 kts | 244° |
| 2026-05-05 22:28 | 55.73651 | 1.93343 | 36086 ft | 415 kts | 244° |
| 2026-05-05 22:28 | 55.71012 | 1.84238 | 36085 ft | 415 kts | 243° |
| 2026-05-05 22:29 | 55.68361 | 1.75137 | 36080 ft | 416 kts | 243° |
| 2026-05-05 22:29 | 55.65696 | 1.66051 | 36080 ft | 416 kts | 243° |
| 2026-05-05 22:30 | 55.63026 | 1.56956 | 36077 ft | 416 kts | 243° |
| 2026-05-05 22:30 | 55.60356 | 1.47861 | 36082 ft | 417 kts | 243° |
| 2026-05-05 22:31 | 55.57670 | 1.38779 | 36085 ft | 417 kts | 243° |
| 2026-05-05 22:31 | 55.54969 | 1.29689 | 36085 ft | 418 kts | 243° |
| 2026-05-05 22:32 | 55.52263 | 1.20613 | 36082 ft | 418 kts | 243° |
| 2026-05-05 22:32 | 55.49548 | 1.11540 | 36087 ft | 418 kts | 243° |
| 2026-05-05 22:33 | 55.46827 | 1.02478 | 36081 ft | 419 kts | 243° |
| 2026-05-05 22:33 | 55.44103 | 0.93410 | 36083 ft | 419 kts | 243° |
| 2026-05-05 22:34 | 55.41363 | 0.84345 | 36087 ft | 420 kts | 243° |
| 2026-05-05 22:34 | 55.39070 | 0.76820 | 36089 ft | 420 kts | 243° |
| 2026-05-05 22:35 | 55.36307 | 0.67758 | 36083 ft | 421 kts | 243° |
| 2026-05-05 22:35 | 55.33541 | 0.58694 | 36090 ft | 421 kts | 243° |
| 2026-05-05 22:36 | 55.30756 | 0.49636 | 36092 ft | 422 kts | 243° |
| 2026-05-05 22:36 | 55.27960 | 0.40581 | 36094 ft | 422 kts | 243° |
| 2026-05-05 22:37 | 55.25168 | 0.31521 | 36089 ft | 423 kts | 243° |
| 2026-05-05 22:37 | 55.22352 | 0.22468 | 36089 ft | 423 kts | 242° |
| 2026-05-05 22:38 | 55.19527 | 0.13422 | 36101 ft | 424 kts | 242° |
| 2026-05-05 22:38 | 55.16700 | 0.04363 | 36098 ft | 424 kts | 242° |
| 2026-05-05 22:39 | 55.13858 | -0.04675 | 36099 ft | 425 kts | 242° |
| 2026-05-05 22:39 | 55.11006 | -0.13729 | 36107 ft | 425 kts | 242° |
| 2026-05-05 22:40 | 55.08150 | -0.22760 | 36111 ft | 426 kts | 242° |
| 2026-05-05 22:40 | 55.05278 | -0.31808 | 36110 ft | 426 kts | 242° |
| 2026-05-05 22:41 | 55.02394 | -0.40832 | 36107 ft | 426 kts | 242° |
| 2026-05-05 22:41 | 54.99498 | -0.49867 | 36106 ft | 427 kts | 242° |
| 2026-05-05 22:42 | 54.96596 | -0.58887 | 36107 ft | 427 kts | 242° |
| 2026-05-05 22:42 | 54.93691 | -0.67901 | 36109 ft | 427 kts | 242° |
| 2026-05-05 22:43 | 54.90781 | -0.76905 | 35859 ft | 428 kts | 242° |
| 2026-05-05 22:43 | 54.89317 | -0.81405 | 35608 ft | 427 kts | 242° |
| 2026-05-05 22:43 | 54.87853 | -0.85887 | 35358 ft | 427 kts | 242° |
| 2026-05-05 22:43 | 54.86443 | -0.90207 | 35116 ft | 427 kts | 242° |
| 2026-05-05 22:44 | 54.84982 | -0.94688 | 34878 ft | 427 kts | 242° |
| 2026-05-05 22:44 | 54.83535 | -0.99119 | 34504 ft | 427 kts | 242° |
| 2026-05-05 22:44 | 54.82063 | -1.03617 | 33761 ft | 431 kts | 242° |
| 2026-05-05 22:44 | 54.80576 | -1.08150 | 33350 ft | 425 kts | 242° |
| 2026-05-05 22:45 | 54.79119 | -1.12581 | 32869 ft | 421 kts | 242° |
| 2026-05-05 22:45 | 54.77694 | -1.16909 | 32399 ft | 417 kts | 242° |
| 2026-05-05 22:45 | 54.76259 | -1.21253 | 31942 ft | 413 kts | 242° |
| 2026-05-05 22:45 | 54.74818 | -1.25603 | 31446 ft | 410 kts | 242° |
| 2026-05-05 22:46 | 54.73408 | -1.29855 | 30990 ft | 406 kts | 242° |
| 2026-05-05 22:46 | 54.72008 | -1.34077 | 30532 ft | 403 kts | 242° |
| 2026-05-05 22:46 | 54.70618 | -1.38268 | 30042 ft | 400 kts | 242° |
| 2026-05-05 22:46 | 54.69259 | -1.42359 | 29576 ft | 395 kts | 242° |
| 2026-05-05 22:47 | 54.67895 | -1.46454 | 29124 ft | 391 kts | 242° |
| 2026-05-05 22:47 | 54.66546 | -1.50490 | 28691 ft | 386 kts | 241° |
| 2026-05-05 22:47 | 54.65207 | -1.54487 | 28256 ft | 382 kts | 241° |
| 2026-05-05 22:47 | 54.63880 | -1.58442 | 27842 ft | 379 kts | 241° |
| 2026-05-05 22:48 | 54.62562 | -1.62360 | 27426 ft | 376 kts | 241° |
| 2026-05-05 22:48 | 54.61255 | -1.66241 | 27011 ft | 373 kts | 241° |
| 2026-05-05 22:48 | 54.59957 | -1.70095 | 26610 ft | 371 kts | 241° |
| 2026-05-05 22:48 | 54.58666 | -1.73922 | 26215 ft | 368 kts | 241° |
| 2026-05-05 22:49 | 54.57371 | -1.77724 | 25832 ft | 366 kts | 238° |
| 2026-05-05 22:49 | 54.55801 | -1.81156 | 25451 ft | 365 kts | 227° |
| 2026-05-05 22:49 | 54.53860 | -1.83953 | 25068 ft | 364 kts | 215° |
| 2026-05-05 22:49 | 54.51618 | -1.86027 | 24593 ft | 372 kts | 204° |
| 2026-05-05 22:50 | 54.49124 | -1.87297 | 24107 ft | 377 kts | 192° |
| 2026-05-05 22:50 | 54.46540 | -1.88091 | 23616 ft | 377 kts | 192° |
| 2026-05-05 22:50 | 54.43952 | -1.88889 | 23074 ft | 377 kts | 192° |
| 2026-05-05 22:50 | 54.41379 | -1.89690 | 22588 ft | 374 kts | 192° |
| 2026-05-05 22:51 | 54.38825 | -1.90489 | 22109 ft | 372 kts | 192° |
| 2026-05-05 22:51 | 54.36284 | -1.91285 | 21622 ft | 370 kts | 192° |
| 2026-05-05 22:51 | 54.33758 | -1.92077 | 21155 ft | 368 kts | 192° |
| 2026-05-05 22:51 | 54.31244 | -1.92864 | 20684 ft | 366 kts | 192° |
| 2026-05-05 22:52 | 54.28746 | -1.93643 | 20217 ft | 364 kts | 192° |
| 2026-05-05 22:52 | 54.26267 | -1.94437 | 19749 ft | 361 kts | 195° |
| 2026-05-05 22:52 | 54.23929 | -1.95864 | 19292 ft | 355 kts | 209° |
| 2026-05-05 22:52 | 54.21874 | -1.98146 | 18837 ft | 350 kts | 221° |
| 2026-05-05 22:53 | 54.20196 | -2.01123 | 18387 ft | 346 kts | 234° |
| 2026-05-05 22:53 | 54.18823 | -2.04466 | 17904 ft | 343 kts | 236° |
| 2026-05-05 22:53 | 54.17466 | -2.07785 | 17463 ft | 339 kts | 236° |
| 2026-05-05 22:53 | 54.16117 | -2.11066 | 17029 ft | 335 kts | 236° |
| 2026-05-05 22:54 | 54.14761 | -2.14276 | 16592 ft | 332 kts | 234° |
| 2026-05-05 22:54 | 54.13365 | -2.17386 | 16169 ft | 328 kts | 233° |
| 2026-05-05 22:54 | 54.11958 | -2.20425 | 15765 ft | 325 kts | 233° |
| 2026-05-05 22:54 | 54.10557 | -2.23423 | 15351 ft | 323 kts | 233° |
| 2026-05-05 22:55 | 54.09162 | -2.26402 | 14938 ft | 320 kts | 233° |
| 2026-05-05 22:55 | 54.07784 | -2.29356 | 14529 ft | 318 kts | 233° |
| 2026-05-05 22:55 | 54.06420 | -2.32293 | 14119 ft | 316 kts | 233° |
| 2026-05-05 22:55 | 54.05064 | -2.35225 | 13695 ft | 313 kts | 233° |
| 2026-05-05 22:56 | 54.03728 | -2.38118 | 13309 ft | 310 kts | 233° |
| 2026-05-05 22:56 | 54.02209 | -2.40614 | 13146 ft | 301 kts | 217° |
| 2026-05-05 22:56 | 54.00352 | -2.42203 | 12876 ft | 299 kts | 199° |
| 2026-05-05 22:56 | 53.98303 | -2.42739 | 12593 ft | 301 kts | 181° |
| 2026-05-05 22:57 | 53.96221 | -2.42339 | 12205 ft | 301 kts | 173° |
| 2026-05-05 22:57 | 53.94146 | -2.41799 | 11793 ft | 301 kts | 173° |
| 2026-05-05 22:57 | 53.92071 | -2.41264 | 11389 ft | 301 kts | 173° |
| 2026-05-05 22:57 | 53.89998 | -2.40731 | 10968 ft | 302 kts | 173° |
| 2026-05-05 22:58 | 53.87922 | -2.40199 | 10577 ft | 301 kts | 173° |
| 2026-05-05 22:58 | 53.85920 | -2.39689 | 10210 ft | 300 kts | 173° |
| 2026-05-05 22:58 | 53.83883 | -2.39173 | 9825 ft | 300 kts | 173° |
| 2026-05-05 22:58 | 53.81834 | -2.38657 | 9474 ft | 294 kts | 173° |
| 2026-05-05 22:59 | 53.79813 | -2.38148 | 8960 ft | 292 kts | 173° |
| 2026-05-05 22:59 | 53.77821 | -2.37647 | 8512 ft | 286 kts | 173° |
| 2026-05-05 22:59 | 53.75860 | -2.37158 | 8118 ft | 283 kts | 173° |
| 2026-05-05 22:59 | 53.73916 | -2.36675 | 7720 ft | 281 kts | 173° |
| 2026-05-05 23:00 | 53.70087 | -2.35721 | 7162 ft | 273 kts | 173° |
| 2026-05-05 23:00 | 53.68237 | -2.35255 | 7036 ft | 264 kts | 173° |
| 2026-05-05 23:00 | 53.66469 | -2.34810 | 6901 ft | 256 kts | 173° |
| 2026-05-05 23:01 | 53.64723 | -2.34340 | 6839 ft | 255 kts | 173° |
| 2026-05-05 23:01 | 53.62965 | -2.33849 | 6782 ft | 256 kts | 172° |
| 2026-05-05 23:01 | 53.61209 | -2.33352 | 6712 ft | 256 kts | 172° |
| 2026-05-05 23:01 | 53.59463 | -2.32857 | 6614 ft | 255 kts | 172° |
| 2026-05-05 23:02 | 53.57711 | -2.32364 | 6507 ft | 255 kts | 172° |
| 2026-05-05 23:02 | 53.55962 | -2.31873 | 6403 ft | 254 kts | 172° |
| 2026-05-05 23:02 | 53.54219 | -2.31385 | 6289 ft | 254 kts | 172° |
| 2026-05-05 23:02 | 53.52475 | -2.30898 | 6184 ft | 254 kts | 172° |
| 2026-05-05 23:03 | 53.50746 | -2.30414 | 6083 ft | 253 kts | 172° |
| 2026-05-05 23:03 | 53.49013 | -2.29927 | 5976 ft | 253 kts | 172° |
| 2026-05-05 23:03 | 53.47285 | -2.29445 | 5867 ft | 253 kts | 172° |
| 2026-05-05 23:03 | 53.45556 | -2.28966 | 5774 ft | 252 kts | 172° |
| 2026-05-05 23:04 | 53.43819 | -2.28482 | 5667 ft | 252 kts | 172° |
| 2026-05-05 23:04 | 53.42171 | -2.28020 | 5566 ft | 251 kts | 172° |
| 2026-05-05 23:04 | 53.40711 | -2.27657 | 5528 ft | 252 kts | 173° |
| 2026-05-05 23:04 | 53.39021 | -2.27219 | 5378 ft | 248 kts | 172° |
| 2026-05-05 23:05 | 53.37386 | -2.26873 | 5265 ft | 238 kts | 183° |
| 2026-05-05 23:05 | 53.35765 | -2.27427 | 5168 ft | 232 kts | 206° |
| 2026-05-05 23:05 | 53.34451 | -2.28926 | 5069 ft | 229 kts | 228° |
| 2026-05-05 23:05 | 53.33479 | -2.30928 | 4969 ft | 217 kts | 233° |
| 2026-05-05 23:06 | 53.32561 | -2.32884 | 4827 ft | 213 kts | 233° |
| 2026-05-05 23:06 | 53.31645 | -2.34824 | 4739 ft | 208 kts | 233° |
| 2026-05-05 23:06 | 53.30792 | -2.36624 | 4648 ft | 189 kts | 233° |
| 2026-05-05 23:06 | 53.30009 | -2.38270 | 4550 ft | 172 kts | 233° |
| 2026-05-05 23:07 | 53.29289 | -2.39782 | 4484 ft | 163 kts | 233° |
| 2026-05-05 23:07 | 53.28587 | -2.41260 | 4412 ft | 162 kts | 233° |
| 2026-05-05 23:07 | 53.27889 | -2.42733 | 4353 ft | 162 kts | 233° |
| 2026-05-05 23:07 | 53.27191 | -2.44204 | 4291 ft | 162 kts | 234° |
| 2026-05-05 23:08 | 53.26492 | -2.45676 | 4211 ft | 162 kts | 234° |
| 2026-05-05 23:08 | 53.25815 | -2.47104 | 4135 ft | 161 kts | 233° |
| 2026-05-05 23:08 | 53.25100 | -2.48558 | 4078 ft | 162 kts | 227° |
| 2026-05-05 23:08 | 53.24211 | -2.49729 | 4007 ft | 164 kts | 212° |
| 2026-05-05 23:09 | 53.23157 | -2.50477 | 3936 ft | 166 kts | 197° |
| 2026-05-05 23:09 | 53.22011 | -2.50771 | 3861 ft | 167 kts | 188° |
| 2026-05-05 23:09 | 53.20854 | -2.50976 | 3787 ft | 167 kts | 188° |
| 2026-05-05 23:09 | 53.19698 | -2.51188 | 3722 ft | 167 kts | 188° |
| 2026-05-05 23:10 | 53.18542 | -2.51401 | 3675 ft | 167 kts | 188° |
| 2026-05-05 23:10 | 53.17387 | -2.51614 | 3585 ft | 167 kts | 188° |
| 2026-05-05 23:10 | 53.16266 | -2.52057 | 3528 ft | 165 kts | 206° |
| 2026-05-05 23:10 | 53.15330 | -2.53115 | 3495 ft | 162 kts | 227° |
| 2026-05-05 23:11 | 53.14695 | -2.54633 | 3455 ft | 159 kts | 248° |
| 2026-05-05 23:11 | 53.14432 | -2.56403 | 3418 ft | 157 kts | 269° |
| 2026-05-05 23:11 | 53.14558 | -2.58194 | 3381 ft | 155 kts | 289° |
| 2026-05-05 23:11 | 53.15044 | -2.59778 | 3350 ft | 154 kts | 308° |
| 2026-05-05 23:12 | 53.15825 | -2.60989 | 3314 ft | 154 kts | 327° |
| 2026-05-05 23:12 | 53.16805 | -2.61676 | 3282 ft | 154 kts | 347° |
| 2026-05-05 23:12 | 53.17871 | -2.61759 | 3246 ft | 155 kts | 6° |
| 2026-05-05 23:12 | 53.18903 | -2.61217 | 3213 ft | 157 kts | 26° |
| 2026-05-05 23:13 | 53.19766 | -2.60091 | 3157 ft | 160 kts | 46° |
| 2026-05-05 23:13 | 53.20446 | -2.58625 | 3094 ft | 157 kts | 50° |
| 2026-05-05 23:13 | 53.21094 | -2.57220 | 3022 ft | 150 kts | 50° |
| 2026-05-05 23:13 | 53.21724 | -2.55860 | 2996 ft | 147 kts | 50° |
| 2026-05-05 23:14 | 53.22347 | -2.54509 | 2996 ft | 147 kts | 51° |
| 2026-05-05 23:14 | 53.22956 | -2.53145 | 2999 ft | 147 kts | 50° |
| 2026-05-05 23:14 | 53.23582 | -2.51806 | 3000 ft | 146 kts | 49° |
| 2026-05-05 23:14 | 53.24217 | -2.50480 | 3004 ft | 146 kts | 48° |
| 2026-05-05 23:15 | 53.24856 | -2.49159 | 3003 ft | 146 kts | 48° |
| 2026-05-05 23:15 | 53.25496 | -2.47841 | 3002 ft | 146 kts | 48° |
| 2026-05-05 23:15 | 53.26140 | -2.46517 | 2930 ft | 147 kts | 48° |
| 2026-05-05 23:15 | 53.26781 | -2.45200 | 2776 ft | 146 kts | 48° |
| 2026-05-05 23:16 | 53.27419 | -2.43891 | 2599 ft | 144 kts | 48° |
| 2026-05-05 23:16 | 53.28049 | -2.42595 | 2417 ft | 143 kts | 48° |
| 2026-05-05 23:16 | 53.28655 | -2.41350 | 2222 ft | 142 kts | 47° |
| 2026-05-05 23:16 | 53.29276 | -2.40073 | 2029 ft | 141 kts | 48° |
| 2026-05-05 23:17 | 53.29892 | -2.38806 | 1833 ft | 140 kts | 47° |
| 2026-05-05 23:17 | 53.30504 | -2.37547 | 1641 ft | 140 kts | 48° |
| 2026-05-05 23:17 | 53.31116 | -2.36287 | 1440 ft | 140 kts | 49° |
| 2026-05-05 23:17 | 53.31719 | -2.35043 | 1254 ft | 139 kts | 49° |
| 2026-05-05 23:18 | 53.32330 | -2.33784 | 1049 ft | 140 kts | 50° |
| 2026-05-05 23:18 | 53.32938 | -2.32530 | 846 ft | 138 kts | 51° |
| 2026-05-05 23:18 | 53.33525 | -2.31318 | 662 ft | 138 kts | 51° |
| 2026-05-05 23:18 | 53.34126 | -2.30077 | 467 ft | 137 kts | 52° |
| 2026-05-05 23:19 | 53.34532 | -2.29240 | 358 ft | 137 kts | 52° |
| 2026-05-05 23:19 | 53.35119 | -2.28037 | 239 ft | 131 kts | 52° |
| 2026-05-05 23:19 | 53.35542 | -2.27147 | 239 ft | 59 kts | 50° |
| 2026-05-05 23:19 | 53.35684 | -2.26860 | 242 ft | 26 kts | 51° |
| 2026-05-05 23:20 | 53.35793 | -2.26681 | 247 ft | 17 kts | 13° |
| 2026-05-05 23:20 | 53.35886 | -2.26699 | 242 ft | 7 kts | 349° |
| 2026-05-05 23:20 | 53.35951 | -2.26723 | 234 ft | 12 kts | 346° |
| 2026-05-05 23:20 | 53.35990 | -2.26817 | 233 ft | 13 kts | 246° |
| 2026-05-05 23:21 | 53.35938 | -2.26832 | 235 ft | 9 kts | 166° |
| 2026-05-05 23:21 | 53.35886 | -2.26869 | 234 ft | 9 kts | 234° |
| 2026-05-05 23:21 | 53.35843 | -2.26960 | 233 ft | 11 kts | 234° |
| 2026-05-05 23:21 | 53.35803 | -2.27080 | 234 ft | 11 kts | 243° |
| 2026-05-05 23:22 | 53.35820 | -2.27187 | 233 ft | 10 kts | 315° |
| 2026-05-05 23:22 | 53.35890 | -2.27226 | 233 ft | 12 kts | 351° |
| 2026-05-05 23:22 | 53.35935 | -2.27235 | 233 ft | 4 kts | 5° |
| 2026-05-05 23:22 | 53.35950 | -2.27197 | 234 ft | 5 kts | 85° |
| 2026-05-05 23:23 | 53.35951 | -2.27135 | 233 ft | 3 kts | 90° |
| 2026-05-05 23:23 | 53.35951 | -2.27134 | 233 ft | 0 kts | 90° |